MSC Jordan — HPMK — position and weather

sailwx.info

Track history (hours):
 
Tides and Currents Weather Stations Pressure Air Temp Water Temp Dewpoint Dewpoint Depression Visibility Wind Speed Wind Dir Waves Ship Positions

MSC Jordan

Last reported at 2017-May-11 17:22 UTC. Time now 2017-May-28 14:15 UTC.
Position N 14°34' W 017°24'.
Warning: this ship's position is 16 days out of date.

Length 237 m; draft 11.1 m.

Type: Ship. MMSI: 355194000.

Date/timePositionNaut miles runAvg speedWind from/ knotsBaromVisibWave heightAir tempDewpointWater temp
2017-May-11 17:22N 14°34' W 017°24'616.0
2017-May-11 16:58N 14°40' W 017°23'3 5.5
2017-May-11 16:30N 14°41' W 017°26'0 0.6
2017-May-11 15:57N 14°41' W 017°26'0 0.0
2017-May-11 15:30N 14°41' W 017°26'0 0.0
2017-May-11 15:00N 14°41' W 017°26'0 0.0
2017-May-11 14:00N 14°41' W 017°26'0 0.0
2017-May-11 13:30N 14°41' W 017°26'0 0.0
2017-May-11 13:00N 14°41' W 017°26'0 0.0
2017-May-11 12:30N 14°41' W 017°26'0 0.0
2017-May-11 12:00N 14°41' W 017°26'0 0.0
2017-May-11 11:30N 14°41' W 017°26'0 0.0
2017-May-11 11:01N 14°41' W 017°26'0 0.0
2017-May-11 10:31N 14°41' W 017°26'0 0.0
2017-May-11 10:00N 14°41' W 017°26'0 0.0
2017-May-11 09:31N 14°41' W 017°26'0 0.0
2017-May-11 09:00N 14°41' W 017°26'0 0.0
2017-May-11 08:30N 14°41' W 017°26'0 0.0
2017-May-11 08:00N 14°41' W 017°26'1 1.7
2017-May-11 07:30N 14°41' W 017°25'3 5.5
2017-May-11 07:00N 14°40' W 017°22'2 1.9
2017-May-11 06:11N 14°40' W 017°20'2 9.8
2017-May-11 06:00N 14°39' W 017°19'79216.5
2017-May-09 06:08N 27°43' W 015°17'217.5
2017-May-09 06:00N 27°45' W 015°17'817.1
2017-May-09 05:30N 27°53' W 015°16'816.0
2017-May-09 05:00N 28°01' W 015°18'815.5
2017-May-09 04:30N 28°07' W 015°24'1 2.9
2017-May-09 04:00N 28°08' W 015°25'0 0.1
2017-May-09 03:23N 28°08' W 015°25'0 0.0
2017-May-09 02:53N 28°08' W 015°25'0 0.0
2017-May-09 02:23N 28°08' W 015°25'0 0.0
2017-May-09 01:56N 28°08' W 015°25'0 0.0
2017-May-09 01:26N 28°08' W 015°25'0 0.0
2017-May-09 00:56N 28°08' W 015°25'0 0.0
2017-May-09 00:26N 28°08' W 015°25'0 0.0
2017-May-08 23:56N 28°08' W 015°25'0 0.0
2017-May-08 23:29N 28°08' W 015°25'0 0.0
2017-May-08 22:59N 28°08' W 015°25'0 0.0
2017-May-08 22:29N 28°08' W 015°25'0 0.0
2017-May-08 21:59N 28°08' W 015°25'0 0.0
2017-May-08 21:29N 28°08' W 015°25'0 0.0
2017-May-08 20:59N 28°08' W 015°25'0 0.0
2017-May-08 20:26N 28°08' W 015°25'0 0.0
2017-May-08 19:56N 28°08' W 015°25'0 0.0
2017-May-08 19:30N 28°08' W 015°25'1 2.0
2017-May-08 19:00N 28°07' W 015°25'3 6.6
2017-May-08 18:30N 28°07' W 015°21'5 9.6
2017-May-08 18:00N 28°11' W 015°19'918.9
2017-May-08 17:30N 28°21' W 015°16'918.6
2017-May-08 17:00N 28°30' W 015°13'918.5
2017-May-08 16:30N 28°39' W 015°11'918.6
2017-May-08 16:01N 28°47' W 015°08'918.6
2017-May-08 15:30N 28°56' W 015°05'918.6
2017-May-08 15:00N 29°05' W 015°02'918.5
2017-May-08 14:31N 29°14' W 014°60'2118.6
2017-May-08 13:21N 29°35' W 014°53'1418.7
2017-May-08 12:37N 29°48' W 014°48'218.5
2017-May-08 12:30N 29°50' W 014°47'1018.6
2017-May-08 11:57N 29°60' W 014°43'55018.9
2017-May-07 06:49N 38°48' W 011°39'618.5
2017-May-07 06:30N 38°54' W 011°37'918.7
2017-May-07 06:00N 39°03' W 011°33'918.8
2017-May-07 05:30N 39°12' W 011°30'918.9
2017-May-07 05:00N 39°21' W 011°27'16618.8
2017-May-06 20:13N 41°60' W 010°27'419.1
2017-May-06 20:00N 42°04' W 010°26'54917.7
2017-May-05 13:02N 49°49' W 003°26'118.4
2017-May-05 13:00N 49°49' W 003°25'918.5
2017-May-05 12:30N 49°53' W 003°12'1019.4
2017-May-05 12:00N 49°57' W 002°59'7620.2
2017-May-05 08:13N 49°45' W 001°02'520.4
2017-May-05 08:00N 49°43' W 000°55'1019.8
2017-May-05 07:30N 49°39' W 000°41'1019.3
2017-May-05 07:00N 49°36' W 000°27'918.0
2017-May-05 06:30N 49°33' W 000°14'714.5
2017-May-05 06:00N 49°31' W 000°03'713.9
2017-May-05 05:30N 49°28' E 000°06'1 2.3
2017-May-05 04:59N 49°28' E 000°08'0 0.0
2017-May-05 04:29N 49°28' E 000°08'0 0.0
2017-May-05 03:59N 49°28' E 000°08'0 0.0
2017-May-05 03:29N 49°28' E 000°08'0 0.0
2017-May-05 02:59N 49°28' E 000°08'0 0.0
2017-May-05 02:29N 49°28' E 000°08'0 0.0
2017-May-05 01:59N 49°28' E 000°08'0 0.0
2017-May-05 01:29N 49°28' E 000°08'0 0.0
2017-May-05 00:59N 49°28' E 000°08'0 0.0
2017-May-05 00:29N 49°28' E 000°08'0 0.0
2017-May-04 23:59N 49°28' E 000°08'0 0.0
2017-May-04 23:29N 49°28' E 000°08'0 0.0
2017-May-04 22:59N 49°28' E 000°08'0 0.0
2017-May-04 22:29N 49°28' E 000°08'0 0.0
2017-May-04 21:59N 49°28' E 000°08'0 0.0
2017-May-04 21:29N 49°28' E 000°08'0 0.0
2017-May-04 20:59N 49°28' E 000°08'0 0.0
2017-May-04 20:29N 49°28' E 000°08'0 0.0
2017-May-04 19:59N 49°28' E 000°08'0 0.0
2017-May-04 19:29N 49°28' E 000°08'0 0.0
2017-May-04 18:59N 49°28' E 000°08'0 0.0
2017-May-04 18:29N 49°28' E 000°08'0 0.0
2017-May-04 17:59N 49°28' E 000°08'0 0.0
2017-May-04 17:29N 49°28' E 000°08'0 0.0
2017-May-04 16:59N 49°28' E 000°08'0 0.0
2017-May-04 16:29N 49°28' E 000°08'0 0.0
2017-May-04 15:59N 49°28' E 000°08'0 0.0
2017-May-04 15:29N 49°28' E 000°08'0 0.0
2017-May-04 14:59N 49°28' E 000°08'0 0.0
2017-May-04 13:59N 49°28' E 000°08'0 0.0
2017-May-04 13:29N 49°28' E 000°08'0 0.0
2017-May-04 12:59N 49°28' E 000°08'0 0.0
2017-May-04 12:29N 49°28' E 000°08'0 0.0
2017-May-04 12:00N 49°28' E 000°08'3 5.2
2017-May-04 11:31N 49°29' E 000°05'713.6
2017-May-04 11:00N 49°31' W 000°06'3 7.0
2017-May-04 10:30N 49°32' W 000°10'4 7.7
2017-May-04 10:00N 49°36' W 000°13'0 0.3
2017-May-04 09:30N 49°36' W 000°13'0 0.0
2017-May-04 09:00N 49°36' W 000°13'0 0.0
2017-May-04 08:24N 49°36' W 000°13'0 0.0
2017-May-04 08:00N 49°36' W 000°13'0 0.0
2017-May-04 07:30N 49°36' W 000°13'0 0.0
2017-May-04 07:00N 49°36' W 000°13'0 0.0
2017-May-04 06:24N 49°36' W 000°13'0 0.0
2017-May-04 06:00N 49°36' W 000°13'0 0.0
2017-May-04 05:30N 49°36' W 000°13'0 0.0
2017-May-04 05:00N 49°36' W 000°13'0 0.3
2017-May-04 04:30N 49°36' W 000°13'0 0.2
2017-May-04 04:00N 49°36' W 000°13'0 0.1
2017-May-04 03:30N 49°36' W 000°13'0 0.0
2017-May-04 03:00N 49°36' W 000°13'0 0.2
2017-May-04 02:30N 49°36' W 000°13'4 8.3
2017-May-04 02:01N 49°40' W 000°12'815.7
2017-May-04 01:30N 49°48' W 000°13'816.2
2017-May-04 01:00N 49°56' W 000°13'816.4
2017-May-04 00:30N 50°04' W 000°14'816.4
2017-May-04 00:00N 50°12' W 000°14'816.0
2017-May-03 23:30N 50°20' W 000°11'816.6
2017-May-03 23:00N 50°27' W 000°03'816.6
2017-May-03 22:30N 50°30' E 000°09'917.2
2017-May-03 22:00N 50°33' E 000°22'917.2
2017-May-03 21:30N 50°36' E 000°35'1316.9
2017-May-03 20:44N 50°43' E 000°52'2415.9
2017-May-03 19:15N 50°57' E 001°21'415.0
2017-May-03 19:00N 51°00' E 001°24'714.7
2017-May-03 18:30N 51°06' E 001°32'714.5
2017-May-03 18:01N 51°10' E 001°41'714.9
2017-May-03 17:30N 51°16' E 001°49'815.7
2017-May-03 17:00N 51°24' E 001°51'815.1
2017-May-03 16:30N 51°31' E 001°49'816.3
2017-May-03 16:01N 51°39' E 001°45'917.5
2017-May-03 15:31N 51°48' E 001°44'611.9
2017-May-03 15:00N 51°51' E 001°35'510.4
2017-May-03 14:30N 51°56' E 001°33'9 9.3
2017-May-03 13:30N 51°58' E 001°18'0 0.0
2017-May-03 13:00N 51°58' E 001°18'0 0.0
2017-May-03 12:30N 51°58' E 001°18'0 0.0
2017-May-03 12:00N 51°58' E 001°18'0 0.0
2017-May-03 11:30N 51°58' E 001°18'0 0.0
2017-May-03 11:00N 51°58' E 001°18'0 0.0
2017-May-03 10:30N 51°58' E 001°18'0 0.0
2017-May-03 10:00N 51°58' E 001°18'0 0.0
2017-May-03 09:30N 51°58' E 001°18'0 0.0
2017-May-03 09:00N 51°58' E 001°18'0 0.0
2017-May-03 08:30N 51°58' E 001°18'0 0.0
2017-May-03 08:00N 51°58' E 001°18'0 0.0
2017-May-03 07:30N 51°58' E 001°18'0 0.0
2017-May-03 07:00N 51°58' E 001°18'0 0.0
2017-May-03 06:30N 51°58' E 001°18'0 0.0
2017-May-03 06:00N 51°58' E 001°18'0 0.0
2017-May-03 05:30N 51°58' E 001°18'0 0.0
2017-May-03 05:00N 51°58' E 001°18'0 0.0
2017-May-03 04:25N 51°58' E 001°18'0 0.0
2017-May-03 03:55N 51°58' E 001°18'0 0.0
2017-May-03 03:25N 51°58' E 001°18'0 0.0
2017-May-03 02:58N 51°58' E 001°18'0 0.0
2017-May-03 02:25N 51°58' E 001°18'0 0.0
2017-May-03 01:55N 51°58' E 001°18'0 0.0
2017-May-03 01:25N 51°58' E 001°18'0 0.0
2017-May-03 00:55N 51°58' E 001°18'0 0.0
2017-May-03 00:25N 51°58' E 001°18'0 0.0
2017-May-02 23:55N 51°58' E 001°18'0 0.0
2017-May-02 23:25N 51°58' E 001°18'0 0.0
2017-May-02 22:58N 51°58' E 001°18'0 0.0
2017-May-02 22:25N 51°58' E 001°18'0 0.0
2017-May-02 21:55N 51°58' E 001°18'0 0.0
2017-May-02 21:25N 51°58' E 001°18'0 0.0
2017-May-02 20:55N 51°58' E 001°18'0 0.0
2017-May-02 20:25N 51°58' E 001°18'0 0.0
2017-May-02 19:55N 51°58' E 001°18'0 0.0
2017-May-02 19:25N 51°58' E 001°18'0 0.0
2017-May-02 18:55N 51°58' E 001°18'0 0.0
2017-May-02 18:28N 51°58' E 001°18'0 0.4
2017-May-02 18:00N 51°57' E 001°18'2 4.3
2017-May-02 17:30N 51°55' E 001°20'5 9.9
2017-May-02 17:00N 51°56' E 001°28'4 8.4
2017-May-02 16:30N 51°54' E 001°34'4 7.7
2017-May-02 16:00N 51°52' E 001°38'1 2.3
2017-May-02 15:30N 51°52' E 001°39'0 0.2
2017-May-02 15:00N 51°52' E 001°39'1 1.6
2017-May-02 14:30N 51°53' E 001°39'0 0.2
2017-May-02 13:26N 51°53' E 001°39'0 0.0
2017-May-02 12:56N 51°53' E 001°39'0 0.0
2017-May-02 12:26N 51°53' E 001°39'0 0.0
2017-May-02 11:59N 51°53' E 001°39'0 0.0
2017-May-02 11:26N 51°53' E 001°39'0 0.0
2017-May-02 10:56N 51°53' E 001°39'0 0.0
2017-May-02 10:25N 51°53' E 001°39'0 0.4
2017-May-02 09:59N 51°53' E 001°39'0 0.2
2017-May-02 09:26N 51°53' E 001°39'0 0.1
2017-May-02 08:59N 51°54' E 001°39'0 0.0
2017-May-02 08:25N 51°54' E 001°39'0 0.0
2017-May-02 07:59N 51°54' E 001°39'0 0.0
2017-May-02 07:26N 51°54' E 001°39'0 0.0
2017-May-02 06:56N 51°54' E 001°39'0 0.0
2017-May-02 06:26N 51°54' E 001°39'0 0.0
2017-May-02 05:56N 51°54' E 001°39'0 0.0
2017-May-02 05:26N 51°54' E 001°39'0 0.3
2017-May-02 04:59N 51°54' E 001°39'1 1.3
2017-May-02 04:30N 51°53' E 001°39'612.4
2017-May-02 04:01N 51°50' E 001°48'816.3
2017-May-02 03:30N 51°42' E 001°49'816.3
2017-May-02 03:00N 51°34' E 001°50'816.0
2017-May-02 02:31N 51°28' E 001°57'816.3
2017-May-02 02:01N 51°22' E 002°07'816.1
2017-May-02 01:31N 51°21' E 002°20'917.5
2017-May-02 01:00N 51°23' E 002°34'815.5
2017-May-02 00:31N 51°22' E 002°46'816.2
2017-May-02 00:00N 51°23' E 002°59'816.9
2017-May-01 23:30N 51°24' E 003°12'917.9
2017-May-01 23:00N 51°25' E 003°27'611.5
2017-May-01 22:30N 51°26' E 003°36'510.9
2017-May-01 22:00N 51°23' E 003°43'815.3
2017-May-01 21:30N 51°22' E 003°55'4 8.7
2017-May-01 21:00N 51°23' E 004°02'713.4
2017-May-01 20:30N 51°23' E 004°13'510.1
2017-May-01 19:59N 51°18' E 004°16'1 0.9
2017-May-01 19:17N 51°18' E 004°16'0 0.0
2017-May-01 18:53N 51°18' E 004°16'0 0.0
2017-May-01 18:29N 51°18' E 004°16'0 0.0
2017-May-01 17:59N 51°18' E 004°16'0 0.0
2017-May-01 17:29N 51°18' E 004°16'  
Track history (hours):
 
Tides and Currents Weather Stations Pressure Air Temp Water Temp Dewpoint Dewpoint Depression Visibility Wind Speed Wind Dir Waves Ship Positions

MSC Jordan

Last reported at 2017-May-11 17:22 UTC. Time now 2017-May-28 14:15 UTC.
Position N 14°34' W 017°24'.
Warning: this ship's position is 16 days out of date.

Length 237 m; draft 11.1 m.

Type: Ship. MMSI: 355194000.

Date/timePositionNaut miles runAvg speedWind from/ knotsBaromVisibWave heightAir tempDewpointWater temp
2017-May-11 17:22N 14°34' W 017°24'616.0
2017-May-11 16:58N 14°40' W 017°23'3 5.5
2017-May-11 16:30N 14°41' W 017°26'0 0.6
2017-May-11 15:57N 14°41' W 017°26'0 0.0
2017-May-11 15:30N 14°41' W 017°26'0 0.0
2017-May-11 15:00N 14°41' W 017°26'0 0.0
2017-May-11 14:00N 14°41' W 017°26'0 0.0
2017-May-11 13:30N 14°41' W 017°26'0 0.0
2017-May-11 13:00N 14°41' W 017°26'0 0.0
2017-May-11 12:30N 14°41' W 017°26'0 0.0
2017-May-11 12:00N 14°41' W 017°26'0 0.0
2017-May-11 11:30N 14°41' W 017°26'0 0.0
2017-May-11 11:01N 14°41' W 017°26'0 0.0
2017-May-11 10:31N 14°41' W 017°26'0 0.0
2017-May-11 10:00N 14°41' W 017°26'0 0.0
2017-May-11 09:31N 14°41' W 017°26'0 0.0
2017-May-11 09:00N 14°41' W 017°26'0 0.0
2017-May-11 08:30N 14°41' W 017°26'0 0.0
2017-May-11 08:00N 14°41' W 017°26'1 1.7
2017-May-11 07:30N 14°41' W 017°25'3 5.5
2017-May-11 07:00N 14°40' W 017°22'2 1.9
2017-May-11 06:11N 14°40' W 017°20'2 9.8
2017-May-11 06:00N 14°39' W 017°19'79216.5
2017-May-09 06:08N 27°43' W 015°17'217.5
2017-May-09 06:00N 27°45' W 015°17'817.1
2017-May-09 05:30N 27°53' W 015°16'816.0
2017-May-09 05:00N 28°01' W 015°18'815.5
2017-May-09 04:30N 28°07' W 015°24'1 2.9
2017-May-09 04:00N 28°08' W 015°25'0 0.1
2017-May-09 03:23N 28°08' W 015°25'0 0.0
2017-May-09 02:53N 28°08' W 015°25'0 0.0
2017-May-09 02:23N 28°08' W 015°25'0 0.0
2017-May-09 01:56N 28°08' W 015°25'0 0.0
2017-May-09 01:26N 28°08' W 015°25'0 0.0
2017-May-09 00:56N 28°08' W 015°25'0 0.0
2017-May-09 00:26N 28°08' W 015°25'0 0.0
2017-May-08 23:56N 28°08' W 015°25'0 0.0
2017-May-08 23:29N 28°08' W 015°25'0 0.0
2017-May-08 22:59N 28°08' W 015°25'0 0.0
2017-May-08 22:29N 28°08' W 015°25'0 0.0
2017-May-08 21:59N 28°08' W 015°25'0 0.0
2017-May-08 21:29N 28°08' W 015°25'0 0.0
2017-May-08 20:59N 28°08' W 015°25'0 0.0
2017-May-08 20:26N 28°08' W 015°25'0 0.0
2017-May-08 19:56N 28°08' W 015°25'0 0.0
2017-May-08 19:30N 28°08' W 015°25'1 2.0
2017-May-08 19:00N 28°07' W 015°25'3 6.6
2017-May-08 18:30N 28°07' W 015°21'5 9.6
2017-May-08 18:00N 28°11' W 015°19'918.9
2017-May-08 17:30N 28°21' W 015°16'918.6
2017-May-08 17:00N 28°30' W 015°13'918.5
2017-May-08 16:30N 28°39' W 015°11'918.6
2017-May-08 16:01N 28°47' W 015°08'918.6
2017-May-08 15:30N 28°56' W 015°05'918.6
2017-May-08 15:00N 29°05' W 015°02'918.5
2017-May-08 14:31N 29°14' W 014°60'2118.6
2017-May-08 13:21N 29°35' W 014°53'1418.7
2017-May-08 12:37N 29°48' W 014°48'218.5
2017-May-08 12:30N 29°50' W 014°47'1018.6
2017-May-08 11:57N 29°60' W 014°43'55018.9
2017-May-07 06:49N 38°48' W 011°39'618.5
2017-May-07 06:30N 38°54' W 011°37'918.7
2017-May-07 06:00N 39°03' W 011°33'918.8
2017-May-07 05:30N 39°12' W 011°30'918.9
2017-May-07 05:00N 39°21' W 011°27'16618.8
2017-May-06 20:13N 41°60' W 010°27'419.1
2017-May-06 20:00N 42°04' W 010°26'54917.7
2017-May-05 13:02N 49°49' W 003°26'118.4
2017-May-05 13:00N 49°49' W 003°25'918.5
2017-May-05 12:30N 49°53' W 003°12'1019.4
2017-May-05 12:00N 49°57' W 002°59'7620.2
2017-May-05 08:13N 49°45' W 001°02'520.4
2017-May-05 08:00N 49°43' W 000°55'1019.8
2017-May-05 07:30N 49°39' W 000°41'1019.3
2017-May-05 07:00N 49°36' W 000°27'918.0
2017-May-05 06:30N 49°33' W 000°14'714.5
2017-May-05 06:00N 49°31' W 000°03'713.9
2017-May-05 05:30N 49°28' E 000°06'1 2.3
2017-May-05 04:59N 49°28' E 000°08'0 0.0
2017-May-05 04:29N 49°28' E 000°08'0 0.0
2017-May-05 03:59N 49°28' E 000°08'0 0.0
2017-May-05 03:29N 49°28' E 000°08'0 0.0
2017-May-05 02:59N 49°28' E 000°08'0 0.0
2017-May-05 02:29N 49°28' E 000°08'0 0.0
2017-May-05 01:59N 49°28' E 000°08'0 0.0
2017-May-05 01:29N 49°28' E 000°08'0 0.0
2017-May-05 00:59N 49°28' E 000°08'0 0.0
2017-May-05 00:29N 49°28' E 000°08'0 0.0
2017-May-04 23:59N 49°28' E 000°08'0 0.0
2017-May-04 23:29N 49°28' E 000°08'0 0.0
2017-May-04 22:59N 49°28' E 000°08'0 0.0
2017-May-04 22:29N 49°28' E 000°08'0 0.0
2017-May-04 21:59N 49°28' E 000°08'0 0.0
2017-May-04 21:29N 49°28' E 000°08'0 0.0
2017-May-04 20:59N 49°28' E 000°08'0 0.0
2017-May-04 20:29N 49°28' E 000°08'0 0.0
2017-May-04 19:59N 49°28' E 000°08'0 0.0
2017-May-04 19:29N 49°28' E 000°08'0 0.0
2017-May-04 18:59N 49°28' E 000°08'0 0.0
2017-May-04 18:29N 49°28' E 000°08'0 0.0
2017-May-04 17:59N 49°28' E 000°08'0 0.0
2017-May-04 17:29N 49°28' E 000°08'0 0.0
2017-May-04 16:59N 49°28' E 000°08'0 0.0
2017-May-04 16:29N 49°28' E 000°08'0 0.0
2017-May-04 15:59N 49°28' E 000°08'0 0.0
2017-May-04 15:29N 49°28' E 000°08'0 0.0
2017-May-04 14:59N 49°28' E 000°08'0 0.0
2017-May-04 13:59N 49°28' E 000°08'0 0.0
2017-May-04 13:29N 49°28' E 000°08'0 0.0
2017-May-04 12:59N 49°28' E 000°08'0 0.0
2017-May-04 12:29N 49°28' E 000°08'0 0.0
2017-May-04 12:00N 49°28' E 000°08'3 5.2
2017-May-04 11:31N 49°29' E 000°05'713.6
2017-May-04 11:00N 49°31' W 000°06'3 7.0
2017-May-04 10:30N 49°32' W 000°10'4 7.7
2017-May-04 10:00N 49°36' W 000°13'0 0.3
2017-May-04 09:30N 49°36' W 000°13'0 0.0
2017-May-04 09:00N 49°36' W 000°13'0 0.0
2017-May-04 08:24N 49°36' W 000°13'0 0.0
2017-May-04 08:00N 49°36' W 000°13'0 0.0
2017-May-04 07:30N 49°36' W 000°13'0 0.0
2017-May-04 07:00N 49°36' W 000°13'0 0.0
2017-May-04 06:24N 49°36' W 000°13'0 0.0
2017-May-04 06:00N 49°36' W 000°13'0 0.0
2017-May-04 05:30N 49°36' W 000°13'0 0.0
2017-May-04 05:00N 49°36' W 000°13'0 0.3
2017-May-04 04:30N 49°36' W 000°13'0 0.2
2017-May-04 04:00N 49°36' W 000°13'0 0.1
2017-May-04 03:30N 49°36' W 000°13'0 0.0
2017-May-04 03:00N 49°36' W 000°13'0 0.2
2017-May-04 02:30N 49°36' W 000°13'4 8.3
2017-May-04 02:01N 49°40' W 000°12'815.7
2017-May-04 01:30N 49°48' W 000°13'816.2
2017-May-04 01:00N 49°56' W 000°13'816.4
2017-May-04 00:30N 50°04' W 000°14'816.4
2017-May-04 00:00N 50°12' W 000°14'816.0
2017-May-03 23:30N 50°20' W 000°11'816.6
2017-May-03 23:00N 50°27' W 000°03'816.6
2017-May-03 22:30N 50°30' E 000°09'917.2
2017-May-03 22:00N 50°33' E 000°22'917.2
2017-May-03 21:30N 50°36' E 000°35'1316.9
2017-May-03 20:44N 50°43' E 000°52'2415.9
2017-May-03 19:15N 50°57' E 001°21'415.0
2017-May-03 19:00N 51°00' E 001°24'714.7
2017-May-03 18:30N 51°06' E 001°32'714.5
2017-May-03 18:01N 51°10' E 001°41'714.9
2017-May-03 17:30N 51°16' E 001°49'815.7
2017-May-03 17:00N 51°24' E 001°51'815.1
2017-May-03 16:30N 51°31' E 001°49'816.3
2017-May-03 16:01N 51°39' E 001°45'917.5
2017-May-03 15:31N 51°48' E 001°44'611.9
2017-May-03 15:00N 51°51' E 001°35'510.4
2017-May-03 14:30N 51°56' E 001°33'9 9.3
2017-May-03 13:30N 51°58' E 001°18'0 0.0
2017-May-03 13:00N 51°58' E 001°18'0 0.0
2017-May-03 12:30N 51°58' E 001°18'0 0.0
2017-May-03 12:00N 51°58' E 001°18'0 0.0
2017-May-03 11:30N 51°58' E 001°18'0 0.0
2017-May-03 11:00N 51°58' E 001°18'0 0.0
2017-May-03 10:30N 51°58' E 001°18'0 0.0
2017-May-03 10:00N 51°58' E 001°18'0 0.0
2017-May-03 09:30N 51°58' E 001°18'0 0.0
2017-May-03 09:00N 51°58' E 001°18'0 0.0
2017-May-03 08:30N 51°58' E 001°18'0 0.0
2017-May-03 08:00N 51°58' E 001°18'0 0.0
2017-May-03 07:30N 51°58' E 001°18'0 0.0
2017-May-03 07:00N 51°58' E 001°18'0 0.0
2017-May-03 06:30N 51°58' E 001°18'0 0.0
2017-May-03 06:00N 51°58' E 001°18'0 0.0
2017-May-03 05:30N 51°58' E 001°18'0 0.0
2017-May-03 05:00N 51°58' E 001°18'0 0.0
2017-May-03 04:25N 51°58' E 001°18'0 0.0
2017-May-03 03:55N 51°58' E 001°18'0 0.0
2017-May-03 03:25N 51°58' E 001°18'0 0.0
2017-May-03 02:58N 51°58' E 001°18'0 0.0
2017-May-03 02:25N 51°58' E 001°18'0 0.0
2017-May-03 01:55N 51°58' E 001°18'0 0.0
2017-May-03 01:25N 51°58' E 001°18'0 0.0
2017-May-03 00:55N 51°58' E 001°18'0 0.0
2017-May-03 00:25N 51°58' E 001°18'0 0.0
2017-May-02 23:55N 51°58' E 001°18'0 0.0
2017-May-02 23:25N 51°58' E 001°18'0 0.0
2017-May-02 22:58N 51°58' E 001°18'0 0.0
2017-May-02 22:25N 51°58' E 001°18'0 0.0
2017-May-02 21:55N 51°58' E 001°18'0 0.0
2017-May-02 21:25N 51°58' E 001°18'0 0.0
2017-May-02 20:55N 51°58' E 001°18'0 0.0
2017-May-02 20:25N 51°58' E 001°18'0 0.0
2017-May-02 19:55N 51°58' E 001°18'0 0.0
2017-May-02 19:25N 51°58' E 001°18'0 0.0
2017-May-02 18:55N 51°58' E 001°18'0 0.0
2017-May-02 18:28N 51°58' E 001°18'0 0.4
2017-May-02 18:00N 51°57' E 001°18'2 4.3
2017-May-02 17:30N 51°55' E 001°20'5 9.9
2017-May-02 17:00N 51°56' E 001°28'4 8.4
2017-May-02 16:30N 51°54' E 001°34'4 7.7
2017-May-02 16:00N 51°52' E 001°38'1 2.3
2017-May-02 15:30N 51°52' E 001°39'0 0.2
2017-May-02 15:00N 51°52' E 001°39'1 1.6
2017-May-02 14:30N 51°53' E 001°39'0 0.2
2017-May-02 13:26N 51°53' E 001°39'0 0.0
2017-May-02 12:56N 51°53' E 001°39'0 0.0
2017-May-02 12:26N 51°53' E 001°39'0 0.0
2017-May-02 11:59N 51°53' E 001°39'0 0.0
2017-May-02 11:26N 51°53' E 001°39'0 0.0
2017-May-02 10:56N 51°53' E 001°39'0 0.0
2017-May-02 10:25N 51°53' E 001°39'0 0.4
2017-May-02 09:59N 51°53' E 001°39'0 0.2
2017-May-02 09:26N 51°53' E 001°39'0 0.1
2017-May-02 08:59N 51°54' E 001°39'0 0.0
2017-May-02 08:25N 51°54' E 001°39'0 0.0
2017-May-02 07:59N 51°54' E 001°39'0 0.0
2017-May-02 07:26N 51°54' E 001°39'0 0.0
2017-May-02 06:56N 51°54' E 001°39'0 0.0
2017-May-02 06:26N 51°54' E 001°39'0 0.0
2017-May-02 05:56N 51°54' E 001°39'0 0.0
2017-May-02 05:26N 51°54' E 001°39'0 0.3
2017-May-02 04:59N 51°54' E 001°39'1 1.3
2017-May-02 04:30N 51°53' E 001°39'612.4
2017-May-02 04:01N 51°50' E 001°48'816.3
2017-May-02 03:30N 51°42' E 001°49'816.3
2017-May-02 03:00N 51°34' E 001°50'816.0
2017-May-02 02:31N 51°28' E 001°57'816.3
2017-May-02 02:01N 51°22' E 002°07'816.1
2017-May-02 01:31N 51°21' E 002°20'917.5
2017-May-02 01:00N 51°23' E 002°34'815.5
2017-May-02 00:31N 51°22' E 002°46'816.2
2017-May-02 00:00N 51°23' E 002°59'816.9
2017-May-01 23:30N 51°24' E 003°12'917.9
2017-May-01 23:00N 51°25' E 003°27'611.5
2017-May-01 22:30N 51°26' E 003°36'510.9
2017-May-01 22:00N 51°23' E 003°43'815.3
2017-May-01 21:30N 51°22' E 003°55'4 8.7
2017-May-01 21:00N 51°23' E 004°02'713.4
2017-May-01 20:30N 51°23' E 004°13'510.1
2017-May-01 19:59N 51°18' E 004°16'1 0.9
2017-May-01 19:17N 51°18' E 004°16'0 0.0
2017-May-01 18:53N 51°18' E 004°16'0 0.0
2017-May-01 18:29N 51°18' E 004°16'0 0.0
2017-May-01 17:59N 51°18' E 004°16'0 0.0
2017-May-01 17:29N 51°18' E 004°16'  

Dump ship's entire track history